Time;durP1;ratioP1;P1;durP2;ratioP2;P2;SDS_P1;SDS_P2;PMS_P1;PMS_P2;Temp;Humidity;BMP_temperature;BMP_pressure;BME280_temperature;BME280_humidity;BME280_pressure;Samples;Min_cycle;Max_cycle;Signal;HPM_P1;HPM_P2
2022/11/20 00:01:17;;;;;;;53.05;32.33;;;;;;;-4.44;100.00;101225.19;5054015;28;20107;-46
2022/11/20 00:03:43;;;;;;;50.63;31.83;;;;;;;-4.51;100.00;101228.72;5055614;28;20320;-45
2022/11/20 00:06:14;;;;;;;56.72;34.72;;;;;;;-4.34;100.00;101225.34;5055466;28;20100;-43
2022/11/20 00:08:39;;;;;;;56.42;34.65;;;;;;;-4.34;100.00;101227.84;5054906;28;20108;-45
2022/11/20 00:11:13;;;;;;;65.75;43.13;;;;;;;-4.33;100.00;101227.09;5055177;28;20120;-46
2022/11/20 00:13:39;;;;;;;63.38;42.60;;;;;;;-4.23;100.00;101223.81;5055646;28;20056;-44
2022/11/20 00:16:07;;;;;;;51.60;34.38;;;;;;;-4.16;100.00;101218.63;5054299;28;20064;-43
2022/11/20 00:18:32;;;;;;;;;;;;;;;-4.13;100.00;101223.94;5055967;28;20454;-43
2022/11/20 00:21:10;;;;;;;63.58;39.95;;;;;;;-4.16;100.00;101222.75;5055108;28;19951;-46
2022/11/20 00:23:35;;;;;;;57.58;36.45;;;;;;;-4.27;100.00;101225.88;5054395;28;20534;-43
2022/11/20 00:26:06;;;;;;;61.03;37.90;;;;;;;-4.23;100.00;101228.84;5055212;28;20107;-44
2022/11/20 00:28:31;;;;;;;62.92;38.80;;;;;;;-4.43;100.00;101226.06;5055118;28;20107;-47
2022/11/20 00:31:05;;;;;;;60.50;39.10;;;;;;;-4.33;100.00;101233.75;5054269;28;20063;-45
2022/11/20 00:33:30;;;;;;;66.18;41.72;;;;;;;-4.36;100.00;101231.84;5055430;28;20091;-45
2022/11/20 00:36:06;;;;;;;62.55;40.25;;;;;;;-4.34;100.00;101232.88;5054617;28;20423;-42
2022/11/20 00:38:32;;;;;;;60.17;36.92;;;;;;;-4.52;100.00;101229.50;5054579;28;20119;-45
2022/11/20 00:40:59;;;;;;;68.25;38.90;;;;;;;-4.39;100.00;101221.50;5054914;28;20075;-43
2022/11/20 00:43:25;;;;;;;55.97;36.67;;;;;;;-4.44;100.00;101224.28;5054063;28;20422;-43
2022/11/20 00:45:59;;;;;;;59.22;35.83;;;;;;;-4.58;100.00;101226.38;5054733;28;20025;-43
2022/11/20 00:48:25;;;;;;;57.15;36.75;;;;;;;-4.55;100.00;101220.75;5054849;28;20473;-45
2022/11/20 00:50:50;;;;;;;34.90;13.63;;;;;;;-4.45;100.00;101223.41;5053871;28;20028;-41
2022/11/20 00:53:15;;;;;;;38.38;14.30;;;;;;;-4.46;100.00;101224.16;5055056;28;20021;-46
2022/11/20 00:55:41;;;;;;;43.63;14.60;;;;;;;-4.48;100.00;101224.00;5054735;28;20032;-44
2022/11/20 00:58:06;;;;;;;60.92;37.45;;;;;;;-4.47;100.00;101219.84;5053150;28;20087;-43
2022/11/20 01:00:31;;;;;;;62.88;41.55;;;;;;;-4.51;100.00;101226.22;5054657;28;20020;-43
2022/11/20 01:02:56;;;;;;;66.65;42.42;;;;;;;-4.66;100.00;101215.59;5055333;28;20074;-44
2022/11/20 01:05:22;;;;;;;62.80;40.08;;;;;;;-4.64;100.00;101218.25;5054327;28;20033;-48
2022/11/20 01:07:47;;;;;;;41.13;15.82;;;;;;;-4.55;100.00;101221.63;5055078;28;20484;-46
2022/11/20 01:10:12;;;;;;;40.40;14.98;;;;;;;-4.56;100.00;101218.97;5055055;28;20112;-48
2022/11/20 01:12:38;;;;;;;62.60;39.40;;;;;;;-4.68;100.00;101216.19;5052383;28;20036;-43
2022/11/20 01:15:03;;;;;;;55.97;35.30;;;;;;;-4.78;100.00;101224.44;5054606;28;20031;-45
2022/11/20 01:17:30;;;;;;;52.08;34.10;;;;;;;-4.93;100.00;101225.47;5054363;28;20029;-46
2022/11/20 01:19:55;;;;;;;36.58;13.93;;;;;;;-4.75;100.00;101226.38;5053302;28;20081;-46
2022/11/20 01:22:21;;;;;;;59.22;38.05;;;;;;;-4.83;100.00;101218.09;5054347;28;20041;-46
2022/11/20 01:24:46;;;;;;;54.42;35.47;;;;;;;-5.03;100.00;101214.53;5053533;28;20031;-41
2022/11/20 01:27:11;;;;;;;56.70;36.35;;;;;;;-4.98;100.00;101220.00;5053889;28;20487;-47
2022/11/20 01:29:36;;;;;;;57.80;37.28;;;;;;;-4.96;100.00;101218.53;5053765;28;20059;-42
2022/11/20 01:32:02;;;;;;;64.13;38.95;;;;;;;-4.90;100.00;101215.72;5053750;28;20380;-43
2022/11/20 01:34:27;;;;;;;39.40;15.25;;;;;;;-4.85;100.00;101217.94;5053379;28;20028;-46
2022/11/20 01:36:53;;;;;;;34.00;13.82;;;;;;;-4.82;100.00;101219.88;5053551;28;20025;-44
2022/11/20 01:39:21;;;;;;;61.90;37.85;;;;;;;-4.94;100.00;101209.50;5053639;28;20021;-45
2022/11/20 01:44:57;;;;;;;56.50;36.83;;;;;;;-5.00;100.00;101214.81;5053747;28;20040;-44
2022/11/20 01:47:45;;;;;;;56.63;36.38;;;;;;;-5.06;100.00;101213.34;5053092;28;20032;-44
2022/11/20 01:50:22;;;;;;;60.28;36.40;;;;;;;-5.16;100.00;101214.94;5053817;28;20025;-48
2022/11/20 01:52:57;;;;;;;58.00;36.92;;;;;;;-5.20;100.00;101219.50;5053175;28;20025;-46
2022/11/20 01:55:27;;;;;;;62.03;38.58;;;;;;;-5.16;100.00;101214.06;5053005;28;20067;-44
2022/11/20 01:57:52;;;;;;;56.92;38.30;;;;;;;-5.22;100.00;101213.47;5053287;28;20171;-46
2022/11/20 02:00:19;;;;;;;58.55;38.30;;;;;;;-5.22;100.00;101210.97;5053347;28;20488;-45
2022/11/20 02:02:51;;;;;;;64.07;40.93;;;;;;;-5.19;100.00;101217.19;5052522;28;20043;-43
2022/11/20 02:05:30;;;;;;;37.55;14.35;;;;;;;-5.11;100.00;101215.41;5053544;28;20056;-45
2022/11/20 02:07:58;;;;;;;68.18;40.55;;;;;;;-5.18;100.00;101215.53;5052374;28;20029;-42
2022/11/20 02:10:25;;;;;;;60.13;38.33;;;;;;;-5.22;100.00;101221.00;5053262;28;20380;-43
2022/11/20 02:15:34;;;;;;;34.38;14.40;;;;;;;-5.18;100.00;101203.84;5052435;28;20036;-46
2022/11/20 02:18:00;;;;;;;37.85;14.15;;;;;;;-5.20;100.00;101204.44;5053106;28;20017;-46
2022/11/20 02:20:26;;;;;;;58.45;36.38;;;;;;;-5.26;100.00;101199.72;5053084;28;20039;-43
2022/11/20 02:23:02;;;;;;;60.17;37.58;;;;;;;-5.32;100.00;101207.53;5051643;28;20388;-44
2022/11/20 02:25:29;;;;;;;43.55;15.35;;;;;;;-5.22;100.00;101203.41;5052984;28;20025;-46
2022/11/20 02:27:55;;;;;;;65.43;40.85;;;;;;;-5.26;100.00;101194.69;5052718;28;20025;-43
2022/11/20 02:30:21;;;;;;;63.63;39.45;;;;;;;-5.29;100.00;101197.78;5052502;28;20071;-43
2022/11/20 02:32:46;;;;;;;36.38;13.55;;;;;;;-5.20;100.00;101196.91;5052531;28;20071;-44
2022/11/20 02:35:17;;;;;;;57.92;37.20;;;;;;;-5.34;100.00;101191.41;5052831;28;20025;-42
2022/11/20 02:37:44;;;;;;;64.43;40.60;;;;;;;-5.32;100.00;101192.47;5052162;28;20025;-45
2022/11/20 02:40:10;;;;;;;64.80;41.87;;;;;;;-5.29;100.00;101192.75;5052855;28;20392;-45
2022/11/20 02:42:36;;;;;;;38.20;13.73;;;;;;;-5.18;100.00;101195.44;5052047;28;20500;-45
2022/11/20 02:45:02;;;;;;;63.33;40.03;;;;;;;-5.16;100.00;101199.88;5052277;28;20028;-44
2022/11/20 02:47:28;;;;;;;63.30;41.28;;;;;;;-5.12;100.00;101194.41;5052638;28;20114;-43
2022/11/20 02:49:53;;;;;;;36.95;15.18;;;;;;;-4.99;100.00;101188.94;5052367;28;20105;-43
2022/11/20 02:52:18;;;;;;;61.47;38.20;;;;;;;-5.01;100.00;101190.44;5052027;28;20021;-47
2022/11/20 02:54:43;;;;;;;68.70;41.90;;;;;;;-4.92;100.00;101192.06;5052564;28;20029;-43
2022/11/20 02:57:09;;;;;;;41.40;15.40;;;;;;;-4.78;100.00;101196.78;5051939;28;20033;-43
2022/11/20 02:59:34;;;;;;;65.65;40.97;;;;;;;-4.71;100.00;101183.16;5052222;28;20040;-45
2022/11/20 03:02:00;;;;;;;47.30;16.40;;;;;;;-4.59;100.00;101193.53;5052435;28;20029;-45
2022/11/20 03:04:25;;;;;;;66.97;42.20;;;;;;;-4.55;100.00;101190.56;5051972;28;20029;-45
2022/11/20 03:06:50;;;;;;;70.63;41.83;;;;;;;-4.49;100.00;101181.09;5052526;28;20883;-44
2022/11/20 03:09:15;;;;;;;38.75;15.82;;;;;;;-4.36;100.00;101184.03;5052516;28;20025;-42
2022/11/20 03:11:41;;;;;;;68.38;41.60;;;;;;;-4.39;100.00;101182.84;5051482;28;20021;-44
2022/11/20 03:14:06;;;;;;;69.43;41.72;;;;;;;-4.37;100.00;101182.25;5052376;28;20082;-45
2022/11/20 03:16:32;;;;;;;68.90;41.97;;;;;;;-4.30;100.00;101179.56;5052073;28;20021;-41
2022/11/20 03:18:58;;;;;;;68.38;42.08;;;;;;;-4.32;100.00;101178.53;5051552;28;20484;-44
2022/11/20 03:21:23;;;;;;;54.47;17.58;;;;;;;-4.22;100.00;101181.91;5052634;28;20064;-45
2022/11/20 03:23:48;;;;;;;73.10;43.47;;;;;;;-4.37;100.00;101177.22;5052007;28;20052;-45
2022/11/20 03:26:17;;;;;;;75.57;44.15;;;;;;;-4.47;100.00;101183.03;5051744;28;20056;-46
2022/11/20 03:28:47;;;;;;;70.82;44.63;;;;;;;-4.51;100.00;101182.56;5052317;28;20029;-44
2022/11/20 03:31:14;;;;;;;71.60;43.78;;;;;;;-4.57;100.00;101175.34;5052294;28;20029;-46
2022/11/20 03:33:41;;;;;;;74.13;42.85;;;;;;;-4.60;100.00;101175.03;5051557;28;20021;-46
2022/11/20 03:36:10;;;;;;;70.88;42.80;;;;;;;-4.59;100.00;101173.41;5055512;28;20421;-46
2022/11/20 03:38:36;;;;;;;76.22;43.70;;;;;;;-4.59;100.00;101168.38;5055657;28;20107;-45
2022/11/20 03:41:05;;;;;;;71.90;44.50;;;;;;;-4.58;100.00;101171.03;5055566;28;20021;-45
2022/11/20 03:43:31;;;;;;;70.95;43.08;;;;;;;-4.61;100.00;101160.66;5056067;28;20033;-42
2022/11/20 03:45:56;;;;;;;71.53;41.72;;;;;;;-4.76;100.00;101154.19;5055790;28;20025;-47
2022/11/20 03:48:22;;;;;;;65.88;40.53;;;;;;;-4.73;100.00;101157.88;5055463;28;20025;-46
2022/11/20 03:50:47;;;;;;;43.40;17.35;;;;;;;-4.64;100.00;101156.25;5055777;28;20056;-45
2022/11/20 03:53:13;;;;;;;67.50;40.83;;;;;;;-4.82;100.00;101154.50;5055590;28;20040;-43
2022/11/20 03:55:38;;;;;;;68.35;42.28;;;;;;;-4.78;100.00;101154.03;5055234;28;20021;-46
2022/11/20 03:58:04;;;;;;;68.50;41.67;;;;;;;-4.85;100.00;101149.19;5055672;28;20155;-46
2022/11/20 04:00:29;;;;;;;71.18;42.20;;;;;;;-4.82;100.00;101144.44;5054979;28;20025;-42
2022/11/20 04:02:58;;;;;;;71.30;43.00;;;;;;;-4.87;100.00;101145.63;5055428;28;20036;-45
2022/11/20 04:05:23;;;;;;;70.93;42.47;;;;;;;-4.91;100.00;101141.03;5055797;28;20035;-43
2022/11/20 04:07:49;;;;;;;65.55;41.15;;;;;;;-4.90;100.00;101140.31;5054559;28;20116;-45
2022/11/20 04:10:14;;;;;;;48.60;15.75;;;;;;;-4.75;100.00;101138.34;5055533;28;20487;-41
2022/11/20 04:12:39;;;;;;;72.70;42.88;;;;;;;-4.86;100.00;101132.31;5055267;28;20033;-45
2022/11/20 04:15:05;;;;;;;68.63;41.67;;;;;;;-4.91;100.00;101141.03;5054757;28;20112;-46
2022/11/20 04:17:30;;;;;;;44.33;17.30;;;;;;;-4.76;100.00;101139.09;5055540;28;20047;-43
2022/11/20 04:19:55;;;;;;;66.53;41.13;;;;;;;-4.82;100.00;101134.38;5055174;28;20116;-44
2022/11/20 04:22:21;;;;;;;98.25;56.13;;;;;;;-4.84;100.00;101136.75;5054662;28;20394;-43
2022/11/20 04:24:46;;;;;;;46.25;16.30;;;;;;;-4.74;100.00;101143.53;5054963;28;20475;-45
2022/11/20 04:27:11;;;;;;;75.68;43.97;;;;;;;-4.81;100.00;101138.69;5055011;28;20041;-44
2022/11/20 04:29:36;;;;;;;72.10;44.55;;;;;;;-4.80;100.00;101127.88;5054199;28;20067;-41
2022/11/20 04:32:02;;;;;;;78.47;47.25;;;;;;;-4.74;100.00;101128.44;5055277;28;20048;-45
2022/11/20 04:34:27;;;;;;;82.40;48.15;;;;;;;-4.64;100.00;101121.03;5054997;28;20028;-45
2022/11/20 04:36:52;;;;;;;82.78;49.28;;;;;;;-4.57;100.00;101129.16;5054329;28;20526;-41
2022/11/20 04:39:17;;;;;;;81.63;48.97;;;;;;;-4.50;100.00;101129.00;5055080;28;20021;-46
2022/11/20 04:41:43;;;;;;;54.70;18.13;;;;;;;-4.38;100.00;101130.13;5054436;28;20025;-42
2022/11/20 04:44:08;;;;;;;76.65;46.30;;;;;;;-4.31;100.00;101131.63;5054250;28;20021;-41
2022/11/20 04:46:36;;;;;;;78.22;47.25;;;;;;;-4.25;100.00;101132.19;5054625;28;20354;-45
2022/11/20 04:49:02;;;;;;;83.43;48.33;;;;;;;-4.24;100.00;101125.53;5054786;28;20021;-44
2022/11/20 04:51:27;;;;;;;80.53;49.05;;;;;;;-4.15;100.00;101127.25;5054233;28;20415;-46
2022/11/20 04:53:53;;;;;;;48.95;18.95;;;;;;;-4.03;100.00;101125.00;5054443;28;20033;-44
2022/11/20 04:56:18;;;;;;;77.50;45.75;;;;;;;-4.07;100.00;101120.41;5054405;28;20025;-41
2022/11/20 04:58:44;;;;;;;78.90;46.38;;;;;;;-4.09;100.00;101116.88;5053565;28;20049;-45
2022/11/20 05:01:15;;;;;;;87.40;50.08;;;;;;;-3.99;100.00;101117.00;5054800;28;20100;-45
2022/11/20 05:03:42;;;;;;;74.40;45.17;;;;;;;-4.12;100.00;101114.06;5053559;28;20052;-46
2022/11/20 05:06:08;;;;;;;77.93;46.72;;;;;;;-4.12;100.00;101114.06;5054625;28;20052;-44
2022/11/20 05:08:34;;;;;;;73.33;43.37;;;;;;;-4.22;100.00;101119.91;5054180;28;20025;-46
2022/11/20 05:11:04;;;;;;;79.57;45.53;;;;;;;-4.26;100.00;101111.91;5053662;28;20025;-44
2022/11/20 05:13:29;;;;;;;75.47;45.40;;;;;;;-4.19;100.00;101106.72;5054606;28;20033;-43
2022/11/20 05:15:54;;;;;;;80.53;44.78;;;;;;;-4.19;100.00;101101.69;5053905;28;20021;-47
2022/11/20 05:18:20;;;;;;;76.50;44.58;;;;;;;-4.33;100.00;101098.75;5053613;28;20067;-45
2022/11/20 05:20:45;;;;;;;79.63;46.30;;;;;;;-4.22;100.00;101101.38;5054029;28;20036;-46
2022/11/20 05:23:10;;;;;;;77.95;45.45;;;;;;;-4.20;100.00;101097.38;5054055;28;20040;-46
2022/11/20 05:25:35;;;;;;;49.38;17.42;;;;;;;-4.10;100.00;101097.47;5053400;28;20538;-43
2022/11/20 05:28:01;;;;;;;74.07;45.28;;;;;;;-4.09;100.00;101091.72;5054110;28;20021;-46
2022/11/20 05:30:26;;;;;;;85.82;49.13;;;;;;;-4.02;100.00;101096.53;5054001;28;20415;-47
2022/11/20 05:32:51;;;;;;;52.53;19.75;;;;;;;-3.94;100.00;101094.72;5053313;28;20025;-46
2022/11/20 05:35:17;;;;;;;78.03;46.53;;;;;;;-3.94;100.00;101088.81;5054019;28;20538;-44
2022/11/20 05:37:42;;;;;;;78.75;47.17;;;;;;;-3.95;100.00;101089.56;5053560;28;20095;-43
2022/11/20 05:40:08;;;;;;;57.55;18.80;;;;;;;-3.82;100.00;101090.81;5053250;28;20427;-45
2022/11/20 05:42:33;;;;;;;89.15;49.40;;;;;;;-3.78;100.00;101091.09;5053396;28;20056;-43
2022/11/20 05:45:00;;;;;;;50.92;18.65;;;;;;;-3.70;100.00;101097.72;5053779;28;20024;-46
2022/11/20 05:47:27;;;;;;;82.47;46.43;;;;;;;-3.70;100.00;101096.09;5053261;28;20083;-43
2022/11/20 05:49:52;;;;;;;77.55;46.33;;;;;;;-3.68;100.00;101104.69;5053478;28;20299;-46
2022/11/20 05:52:18;;;;;;;88.18;48.83;;;;;;;-3.70;100.00;101101.13;5053603;28;20060;-47
2022/11/20 05:54:43;;;;;;;93.25;48.92;;;;;;;-3.61;100.00;101105.25;5052738;28;20040;-45
2022/11/20 05:57:08;;;;;;;55.20;19.15;;;;;;;-3.52;100.00;101118.66;5053008;28;20037;-46
2022/11/20 05:59:34;;;;;;;83.78;48.97;;;;;;;-3.60;100.00;101120.50;5052778;28;20488;-45
2022/11/20 06:01:59;;;;;;;90.93;51.28;;;;;;;-3.62;100.00;101124.50;5052804;28;20037;-47
2022/11/20 06:04:24;;;;;;;90.68;51.60;;;;;;;-3.56;100.00;101124.19;5053451;28;20029;-42
2022/11/20 06:06:50;;;;;;;87.05;50.80;;;;;;;-3.52;100.00;101126.22;5052750;28;20032;-46
2022/11/20 06:09:15;;;;;;;94.85;50.67;;;;;;;-3.48;100.00;101128.25;5053021;28;20025;-43
2022/11/20 06:11:40;;;;;;;52.45;20.38;;;;;;;-3.36;100.00;101126.81;5052970;28;20104;-45
2022/11/20 06:14:05;;;;;;;88.03;49.70;;;;;;;-3.41;100.00;101125.53;5052648;28;20477;-45
2022/11/20 06:16:31;;;;;;;86.55;48.47;;;;;;;-3.39;100.00;101125.69;5053333;28;20025;-43
2022/11/20 06:18:56;;;;;;;90.07;50.80;;;;;;;-3.39;100.00;101134.13;5053206;28;20024;-42
2022/11/20 06:21:22;;;;;;;91.30;51.85;;;;;;;-3.38;100.00;101125.81;5052367;28;20103;-47
2022/11/20 06:23:49;;;;;;;88.78;51.25;;;;;;;-3.31;100.00;101128.13;5052687;28;20094;-41
2022/11/20 06:26:16;;;;;;;92.57;52.33;;;;;;;-3.28;100.00;101122.47;5053178;28;20045;-44
2022/11/20 06:28:41;;;;;;;97.40;52.30;;;;;;;-3.34;100.00;101120.31;5052145;28;20032;-46
2022/11/20 06:31:09;;;;;;;94.60;51.50;;;;;;;-3.27;100.00;101119.22;5053205;28;20388;-46
2022/11/20 06:33:34;;;;;;;97.15;52.92;;;;;;;-3.23;100.00;101127.94;5052416;28;20052;-43
2022/11/20 06:36:00;;;;;;;93.45;52.17;;;;;;;-3.24;100.00;101124.53;5052412;28;20481;-43
2022/11/20 06:38:27;;;;;;;93.93;52.40;;;;;;;-3.25;100.00;101127.81;5052763;28;20476;-43
2022/11/20 06:40:53;;;;;;;97.93;53.83;;;;;;;-3.29;100.00;101115.69;5052294;28;20044;-43
2022/11/20 06:43:18;;;;;;;96.40;53.25;;;;;;;-3.25;100.00;101116.81;5052375;28;20029;-44
2022/11/20 06:45:43;;;;;;;99.43;53.67;;;;;;;-3.20;100.00;101115.59;5052669;28;20021;-43
2022/11/20 06:48:09;;;;;;;98.47;54.33;;;;;;;-3.16;100.00;101110.97;5052579;28;20361;-43
2022/11/20 06:50:36;;;;;;;96.25;54.58;;;;;;;-3.12;100.00;101111.22;5051845;28;20067;-46
2022/11/20 06:53:03;;;;;;;96.07;53.88;;;;;;;-3.11;100.00;101100.41;5052541;28;20400;-44
2022/11/20 06:55:28;;;;;;;105.13;55.03;;;;;;;-3.12;100.00;101099.53;5052326;28;20074;-42
2022/11/20 06:57:54;;;;;;;102.90;55.45;;;;;;;-3.08;100.00;101101.56;5051470;28;20053;-47
2022/11/20 07:00:19;;;;;;;63.50;20.60;;;;;;;-3.01;100.00;101093.81;5052716;28;20029;-47
2022/11/20 07:02:44;;;;;;;101.63;55.30;;;;;;;-3.07;100.00;101095.78;5052011;28;20032;-46
2022/11/20 07:05:09;;;;;;;101.43;54.25;;;;;;;-3.06;100.00;101095.03;5052182;28;20435;-46
2022/11/20 07:07:35;;;;;;;99.97;54.60;;;;;;;-3.07;100.00;101098.28;5052130;28;20032;-45
2022/11/20 07:10:00;;;;;;;102.82;56.42;;;;;;;-3.04;100.00;101097.69;5053715;28;20033;-46
2022/11/20 07:12:25;;;;;;;111.05;58.00;;;;;;;-3.03;100.00;101104.50;5055989;28;20075;-44
2022/11/20 07:14:50;;;;;;;109.40;57.63;;;;;;;-3.00;100.00;101103.13;5056442;28;20024;-43
2022/11/20 07:17:16;;;;;;;108.25;58.47;;;;;;;-2.99;100.00;101099.84;5055803;28;20033;-46
2022/11/20 07:19:42;;;;;;;130.77;73.75;;;;;;;-2.94;100.00;101101.88;5056244;28;20033;-43
2022/11/20 07:22:08;;;;;;;87.45;26.27;;;;;;;-2.84;100.00;101099.41;5056332;28;20027;-46
2022/11/20 07:24:33;;;;;;;105.60;57.35;;;;;;;-2.84;100.00;101096.88;5055132;28;20033;-45
2022/11/20 07:26:58;;;;;;;109.88;56.50;;;;;;;-2.77;100.00;101094.16;5056511;28;20017;-44
2022/11/20 07:29:23;;;;;;;112.38;57.03;;;;;;;-2.75;100.00;101087.63;5056581;28;20349;-46
2022/11/20 07:31:49;;;;;;;109.85;57.78;;;;;;;-2.74;100.00;101084.31;5055286;28;20103;-45
2022/11/20 07:34:14;;;;;;;108.28;56.92;;;;;;;-2.71;100.00;101084.59;5056347;28;20487;-45
2022/11/20 07:36:39;;;;;;;75.75;23.48;;;;;;;-2.60;100.00;101084.66;5055615;28;20029;-46
2022/11/20 07:39:05;;;;;;;109.93;58.88;;;;;;;-2.57;100.00;101079.84;5055570;28;20021;-44
2022/11/20 07:41:31;;;;;;;122.25;69.18;;;;;;;-2.56;100.00;101074.94;5056164;28;20100;-43
2022/11/20 07:43:56;;;;;;;125.13;61.38;;;;;;;-2.58;100.00;101073.94;5055807;28;20440;-46
2022/11/20 07:46:21;;;;;;;112.13;58.13;;;;;;;-2.57;100.00;101082.38;5055566;28;20028;-47
2022/11/20 07:48:46;;;;;;;114.85;58.60;;;;;;;-2.52;100.00;101077.00;5055749;28;20057;-47
2022/11/20 07:51:13;;;;;;;119.22;60.95;;;;;;;-2.47;100.00;101079.00;5055870;28;20025;-47
2022/11/20 07:53:38;;;;;;;119.15;59.45;;;;;;;-2.43;100.00;101079.38;5054885;28;20383;-46
2022/11/20 07:56:04;;;;;;;119.07;60.88;;;;;;;-2.40;100.00;101087.25;5055756;28;20025;-45
2022/11/20 07:58:30;;;;;;;116.63;61.92;;;;;;;-2.32;100.00;101085.38;5055569;28;20041;-45
2022/11/20 08:00:55;;;;;;;78.25;23.33;;;;;;;-2.23;100.00;101091.19;5055075;28;20021;-44
2022/11/20 08:03:21;;;;;;;116.22;59.10;;;;;;;-2.25;100.00;101079.19;5055897;28;20083;-45
2022/11/20 08:05:46;;;;;;;119.25;59.72;;;;;;;-2.23;100.00;101093.72;5055065;28;20029;-46
2022/11/20 08:08:11;;;;;;;119.65;62.33;;;;;;;-2.20;100.00;101085.53;5055005;28;20056;-47
2022/11/20 08:10:37;;;;;;;125.32;62.63;;;;;;;-2.11;100.00;101087.94;5055514;28;20068;-46
2022/11/20 08:15:50;;;;;;;116.65;59.60;;;;;;;-2.07;100.00;101083.25;5054860;28;20071;-46
2022/11/20 08:18:17;;;;;;;127.68;62.75;;;;;;;-1.99;100.00;101086.44;5055431;28;20028;-47
2022/11/20 08:20:42;;;;;;;123.18;63.50;;;;;;;-1.96;100.00;101081.66;5053677;28;20021;-46
2022/11/20 08:23:07;;;;;;;127.88;64.05;;;;;;;-1.89;100.00;101083.91;5055263;28;20116;-48
2022/11/20 08:25:35;;;;;;;130.38;66.90;;;;;;;-1.80;100.00;101083.78;5055184;28;20039;-48
2022/11/20 08:28:01;;;;;;;;;;;;;;;-1.71;100.00;101069.38;5055651;28;20056;-46
2022/11/20 08:30:28;;;;;;;129.73;67.20;;;;;;;-1.70;100.00;101066.09;5055341;28;19970;-45
2022/11/20 08:32:54;;;;;;;145.25;72.65;;;;;;;-1.62;100.00;101063.34;5054598;28;20064;-47
2022/11/20 08:35:20;;;;;;;134.00;66.50;;;;;;;-1.57;100.00;101067.13;5054494;28;20021;-47
2022/11/20 08:37:47;;;;;;;132.15;65.93;;;;;;;-1.55;100.00;101079.13;5054954;28;20029;-45
2022/11/20 08:40:12;;;;;;;137.60;67.60;;;;;;;-1.50;100.00;101074.44;5054930;28;20021;-47
2022/11/20 08:42:48;;;;;;;137.50;68.22;;;;;;;-1.39;100.00;101072.81;5054110;28;20056;-47
2022/11/20 08:45:14;;;;;;;141.73;68.70;;;;;;;-1.34;100.00;101079.97;5054992;28;20025;-48
2022/11/20 08:47:39;;;;;;;155.15;74.30;;;;;;;-1.24;100.00;101075.66;5054278;28;20483;-46
2022/11/20 08:50:05;;;;;;;142.93;72.15;;;;;;;-1.19;100.00;101081.97;5054192;28;20029;-44
2022/11/20 08:52:30;;;;;;;151.13;74.15;;;;;;;-1.08;100.00;101081.19;5054911;28;20025;-44
2022/11/20 08:54:55;;;;;;;137.60;70.05;;;;;;;-0.96;100.00;101072.81;5054355;28;20025;-48
2022/11/20 08:57:20;;;;;;;150.63;70.55;;;;;;;-0.89;100.00;101072.53;5054069;28;20025;-47
2022/11/20 08:59:46;;;;;;;145.27;72.38;;;;;;;-0.82;100.00;101069.72;5054328;28;20025;-46
2022/11/20 09:02:11;;;;;;;91.93;31.38;;;;;;;-0.69;100.00;101069.91;5054164;28;20033;-46
2022/11/20 09:04:37;;;;;;;147.07;72.80;;;;;;;-0.60;100.00;101066.34;5053579;28;20086;-47
2022/11/20 09:07:03;;;;;;;145.60;70.82;;;;;;;-0.60;100.00;101058.75;5054680;28;20032;-47
2022/11/20 09:09:28;;;;;;;144.77;70.40;;;;;;;-0.54;100.00;101060.13;5054322;28;20150;-44
2022/11/20 09:11:53;;;;;;;137.65;67.03;;;;;;;-0.40;100.00;101065.34;5053689;28;20021;-46
2022/11/20 09:14:18;;;;;;;141.95;66.05;;;;;;;-0.41;100.00;101061.94;5054502;28;20055;-48
2022/11/20 09:16:45;;;;;;;137.43;63.88;;;;;;;-0.34;100.00;101071.81;5053704;28;20029;-47
2022/11/20 09:19:10;;;;;;;138.15;66.80;;;;;;;-0.27;100.00;101062.13;5054054;28;20025;-48
2022/11/20 09:21:36;;;;;;;136.40;66.03;;;;;;;-0.24;100.00;101055.63;5054056;28;20032;-46
2022/11/20 09:24:01;;;;;;;127.65;65.10;;;;;;;-0.26;100.00;101053.75;5053560;28;20051;-46
2022/11/20 09:26:26;;;;;;;134.48;66.47;;;;;;;-0.16;100.00;101053.69;5054246;28;20091;-46
2022/11/20 09:28:52;;;;;;;137.02;65.82;;;;;;;-0.15;100.00;101050.41;5053738;28;20486;-47
2022/11/20 09:31:22;;;;;;;134.75;65.18;;;;;;;-0.16;100.00;101041.03;5053624;28;20026;-48
2022/11/20 09:33:48;;;;;;;134.75;64.75;;;;;;;-0.11;100.00;101041.38;5052918;28;20388;-47
2022/11/20 09:36:13;;;;;;;136.32;69.57;;;;;;;-0.01;100.00;101042.19;5053853;28;20040;-44
2022/11/20 09:38:38;;;;;;;130.85;67.45;;;;;;;0.02;100.00;101035.59;5053152;28;20107;-44
2022/11/20 09:41:05;;;;;;;137.05;69.60;;;;;;;0.05;100.00;101040.88;5054001;28;20083;-47
2022/11/20 09:43:54;;;;;;;135.55;67.60;;;;;;;0.12;100.00;101028.78;5053563;28;20044;-43
2022/11/20 09:46:31;;;;;;;138.35;68.80;;;;;;;0.16;100.00;101024.81;5053246;28;20029;-47
2022/11/20 09:49:15;;;;;;;151.63;70.07;;;;;;;0.23;100.00;101027.03;5053917;28;20032;-47
2022/11/20 09:51:59;;;;;;;141.90;68.28;;;;;;;0.27;100.00;101026.50;5053187;28;20104;-46
2022/11/20 09:54:31;;;;;;;139.52;67.20;;;;;;;0.31;100.00;101022.53;5053512;28;20515;-46
2022/11/20 09:57:00;;;;;;;136.80;65.90;;;;;;;0.36;100.00;101017.81;5053511;28;20110;-48
2022/11/20 09:59:43;;;;;;;148.10;66.55;;;;;;;0.45;100.00;101011.75;5052794;28;20040;-48
2022/11/20 10:02:35;;;;;;;149.05;68.32;;;;;;;0.63;100.00;101011.31;5053604;28;20028;-48
2022/11/20 10:05:15;;;;;;;158.32;70.78;;;;;;;0.65;100.00;101013.19;5053115;28;20151;-48
2022/11/20 10:07:55;;;;;;;167.65;74.85;;;;;;;0.62;100.00;101012.97;5052643;28;20021;-47
2022/11/20 10:10:43;;;;;;;186.07;79.03;;;;;;;0.71;100.00;101000.09;5053463;28;20021;-46
2022/11/20 10:13:36;;;;;;;191.32;79.70;;;;;;;0.78;100.00;100986.19;5052474;28;20017;-46
2022/11/20 10:16:32;;;;;;;169.50;68.80;;;;;;;0.72;100.00;100995.88;5053258;28;20468;-45
2022/11/20 10:19:12;;;;;;;159.13;64.87;;;;;;;0.73;100.00;100984.97;5052904;28;20354;-46
2022/11/20 10:22:08;;;;;;;164.93;68.75;;;;;;;0.74;100.00;100976.59;5052192;28;20362;-46
2022/11/20 10:25:11;;;;;;;159.75;66.15;;;;;;;0.72;100.00;100967.97;5052894;28;20028;-46
2022/11/20 10:27:56;;;;;;;146.63;63.58;;;;;;;0.91;100.00;100963.41;5052143;28;20036;-46
2022/11/20 10:30:24;;;;;;;154.10;64.55;;;;;;;0.87;100.00;100952.97;5053015;28;20491;-46
2022/11/20 10:32:54;;;;;;;162.48;65.55;;;;;;;0.86;100.00;100952.06;5052646;28;20020;-47
2022/11/20 10:35:25;;;;;;;159.15;70.13;;;;;;;1.11;100.00;100928.38;5052317;28;20480;-46
2022/11/20 10:37:57;;;;;;;161.05;65.93;;;;;;;1.06;100.00;100929.72;5052695;28;20040;-47
2022/11/20 10:40:25;;;;;;;185.18;70.03;;;;;;;1.04;100.00;100921.16;5052589;28;20025;-47
2022/11/20 10:43:01;;;;;;;178.98;68.80;;;;;;;1.10;100.00;100914.81;5052010;28;20059;-46
2022/11/20 10:45:29;;;;;;;175.82;68.35;;;;;;;1.18;100.00;100917.03;5052691;28;20385;-46
2022/11/20 10:47:56;;;;;;;;;;;;;;;1.33;100.00;100905.38;5052760;28;20028;-48
2022/11/20 10:50:22;;;;;;;187.57;72.63;;;;;;;1.13;100.00;100899.78;5052408;28;19971;-46
2022/11/20 10:53:06;;;;;;;189.18;72.65;;;;;;;1.17;100.00;100898.34;5052560;28;20037;-47
2022/11/20 10:55:46;;;;;;;191.20;73.25;;;;;;;1.12;100.00;100887.00;5051971;28;20025;-44
2022/11/20 10:58:45;;;;;;;201.38;76.55;;;;;;;1.17;100.00;100883.13;5052651;28;20083;-47
2022/11/20 11:01:16;;;;;;;191.63;71.85;;;;;;;1.12;100.00;100880.28;5052421;28;20456;-47
2022/11/20 11:03:45;;;;;;;194.82;74.72;;;;;;;1.13;100.00;100871.00;5051812;28;20112;-47
2022/11/20 11:06:17;;;;;;;207.20;79.78;;;;;;;1.19;100.00;100867.97;5052747;28;20021;-46
2022/11/20 11:08:43;;;;;;;189.23;74.95;;;;;;;1.44;100.00;100862.91;5052157;28;20465;-47
2022/11/20 11:11:20;;;;;;;203.45;75.35;;;;;;;1.37;100.00;100871.78;5052164;28;20029;-47
2022/11/20 11:13:46;;;;;;;191.60;75.50;;;;;;;1.45;100.00;100862.13;5052261;28;20056;-45